Aérodrome :
LOGIN :

S'inscrire | Disclaimer

   EN    FR    IT 

 










Légende :    VFR   VFR Marginal   IFR   IFR Intensif   IFR Très Intensif
Visi : 
Plafond : 
>= 8 km
>= 3000ft
5 à 8 km
1000 à 3000 ft
1500m à 5 km
500 à 1000 ft
800 à 1500m
200 à 500 ft
< 800m
< 200 ft
Symboles :   Orages  Brouillard  Fortes neiges  Fortes précipitations  Vent > 20 kt
SIGMETs :   Divers  Orages  Givrage  Turbulence  Onde Orograph.  Cendres Volcan.






- Altitude de l'aérodrome : 416 ft
- Code IATA : OVD


LEAS - Asturias

DERNIER METAR :
  • 171300Z 30019KT 9999 FEW036 BKN050 12/08 Q1030 NOSIG

METARs EXPIRÉS :
  • 171230Z 29016KT 260V320 9999 FEW030 BKN055 12/06 Q1030 NOSIG
  • 171200Z 30016KT 270V330 9999 FEW030 SCT060 12/07 Q1030 NOSIG
  • 171130Z 30016KT 9999 FEW042 SCT055 12/07 Q1029 NOSIG
  • 171100Z 30011KT 9999 SCT042 13/07 Q1029 NOSIG
  • 171030Z 28012KT 250V310 9999 SCT038 13/07 Q1029 NOSIG

TAF TAF LEAS
Valide du 17 à 09h jusqu'au 18 à 09h UTC


170800Z 1709/1809 29009KT 9999 SCT035 TX13/1715Z TN08/1803Z
PROB30
TEMPO 1709/1712 3000 -RA BKN010 BKN014
PROB40
TEMPO 1709/1715 RA SHRA SCT030TCU
TEMPO 1709/1718 30015G28KT



MET'MAP, la Météo Aéronautique d'un coup d'oeil ! - Copyright ORBIFLY Décembre 2007 - Disclaimer

ORBIFLY MET'MAP TEAM :

Programmation & Développement : Alexandra Zaïnal
Sur une idée originale de : Baudouin d'Aumeries
Assistance à la programmation : Marc-Olivier Méhu
Soutien technique & logistique : Manuel Goepfert

Contact : metmap@orbifly.com




SOURCES & CREDITS :

   NOAA